createdAt,value
2023-03-19T00:00:54.075Z,80.41
2023-03-19T00:01:54.187Z,80.85
2023-03-19T00:02:54.372Z,81.06
2023-03-19T00:03:54.077Z,80.82
2023-03-19T00:04:54.042Z,80.51
2023-03-19T00:05:54.113Z,80.31
2023-03-19T00:06:54.042Z,80.21
2023-03-19T00:07:53.998Z,80.41
2023-03-19T00:08:53.993Z,80.51
2023-03-19T00:09:54.042Z,80.41
2023-03-19T00:10:53.978Z,80.31
2023-03-19T00:11:54.010Z,80.11
2023-03-19T00:12:53.962Z,80.21
2023-03-19T00:13:53.960Z,80.21
2023-03-19T00:14:53.930Z,80.11
2023-03-19T00:15:53.955Z,80.11
2023-03-19T00:16:53.957Z,80.21
2023-03-19T00:17:53.893Z,80.21
2023-03-19T00:18:53.872Z,80.11
2023-03-19T00:19:53.866Z,80.11
2023-03-19T00:20:53.860Z,79.90
2023-03-19T00:21:53.926Z,79.80
2023-03-19T00:22:53.843Z,80.24
2023-03-19T00:23:53.818Z,80.85
2023-03-19T00:24:53.819Z,81.16
2023-03-19T00:25:53.809Z,81.26
2023-03-19T00:26:53.782Z,80.96
2023-03-19T00:27:53.839Z,80.96
2023-03-19T00:28:53.768Z,80.45
2023-03-19T00:29:53.784Z,80.11
2023-03-19T00:30:53.766Z,80.00
2023-03-19T00:31:53.737Z,79.70
2023-03-19T00:32:53.755Z,79.70
2023-03-19T00:33:53.753Z,79.50
2023-03-19T00:34:53.686Z,79.80
2023-03-19T00:35:53.713Z,81.30
2023-03-19T00:36:53.674Z,82.01
2023-03-19T00:37:53.674Z,81.77
2023-03-19T00:38:53.646Z,81.37
2023-03-19T00:39:53.711Z,80.72
2023-03-19T00:40:53.632Z,80.31
2023-03-19T00:41:53.598Z,79.70
2023-03-19T00:42:53.587Z,79.39
2023-03-19T00:43:53.612Z,79.39
2023-03-19T00:44:53.589Z,80.15
2023-03-19T00:45:53.615Z,80.76
2023-03-19T00:46:53.560Z,81.51
2023-03-19T00:47:53.527Z,82.32
2023-03-19T00:48:53.524Z,82.42
2023-03-19T00:49:53.540Z,82.18
2023-03-19T00:50:53.502Z,82.12
2023-03-19T00:51:53.766Z,82.12
2023-03-19T00:52:53.506Z,82.21
2023-03-19T00:53:53.478Z,82.18
2023-03-19T00:54:53.465Z,81.67
2023-03-19T00:55:53.440Z,81.37
2023-03-19T00:56:53.424Z,81.23
2023-03-19T00:57:53.501Z,81.02
2023-03-19T00:58:53.400Z,80.72
2023-03-19T00:59:53.435Z,80.82
2023-03-19T01:00:53.401Z,81.46
2023-03-19T01:01:53.371Z,82.01
2023-03-19T01:02:53.351Z,82.12
2023-03-19T01:03:53.385Z,82.01
2023-03-19T01:04:53.353Z,81.77
2023-03-19T01:05:55.073Z,81.46
2023-03-19T01:06:53.307Z,81.16
2023-03-19T01:07:53.307Z,80.85
2023-03-19T01:08:53.277Z,80.76
2023-03-19T01:09:53.306Z,80.85
2023-03-19T01:10:53.277Z,80.72
2023-03-19T01:11:53.253Z,80.96
2023-03-19T01:12:53.268Z,81.16
2023-03-19T01:13:53.224Z,81.06
2023-03-19T01:14:53.228Z,80.92
2023-03-19T01:15:53.238Z,80.65
2023-03-19T01:16:53.186Z,80.85
2023-03-19T01:17:53.177Z,80.62
2023-03-19T01:18:53.173Z,80.62
2023-03-19T01:19:53.168Z,80.96
2023-03-19T01:20:53.328Z,80.82
2023-03-19T01:21:53.192Z,80.62
2023-03-19T01:22:53.129Z,80.51
2023-03-19T01:23:53.109Z,80.41
2023-03-19T01:24:53.098Z,80.21
2023-03-19T01:25:53.084Z,80.11
2023-03-19T01:26:53.088Z,80.11
2023-03-19T01:27:53.111Z,79.90
2023-03-19T01:28:53.069Z,80.31
2023-03-19T01:29:53.065Z,80.41
2023-03-19T01:30:53.102Z,80.31
2023-03-19T01:31:53.028Z,80.41
2023-03-19T01:32:53.060Z,80.51
2023-03-19T01:33:53.066Z,80.62
2023-03-19T01:34:52.982Z,80.85
2023-03-19T01:35:53.035Z,81.16
2023-03-19T01:36:52.973Z,81.46
2023-03-19T01:37:52.965Z,81.67
2023-03-19T01:38:52.935Z,81.67
2023-03-19T01:39:52.946Z,81.57
2023-03-19T01:40:52.943Z,81.23
2023-03-19T01:41:52.900Z,81.12
2023-03-19T01:42:52.880Z,81.16
2023-03-19T01:43:52.873Z,80.96
2023-03-19T01:44:52.870Z,81.16
2023-03-19T01:45:52.938Z,81.16
2023-03-19T01:46:52.852Z,81.26
2023-03-19T01:47:52.821Z,81.37
2023-03-19T01:48:52.828Z,81.33
2023-03-19T01:49:52.791Z,81.33
2023-03-19T01:50:52.793Z,81.46
2023-03-19T01:51:52.830Z,81.46
2023-03-19T01:52:52.764Z,81.37
2023-03-19T01:53:52.753Z,81.37
2023-03-19T01:54:52.750Z,81.98
2023-03-19T01:55:52.737Z,82.18
2023-03-19T01:56:52.726Z,82.18
2023-03-19T01:57:52.761Z,82.28
2023-03-19T01:58:52.691Z,82.18
2023-03-19T01:59:52.949Z,82.28
2023-03-19T02:00:52.669Z,83.13
2023-03-19T02:01:52.898Z,82.99
2023-03-19T02:02:52.643Z,82.79
2023-03-19T02:03:52.846Z,83.74
2023-03-19T02:04:52.810Z,83.70
2023-03-19T02:05:52.612Z,83.50
2023-03-19T02:06:52.604Z,83.40
2023-03-19T02:07:52.595Z,83.20
2023-03-19T02:08:52.599Z,83.95
2023-03-19T02:09:52.624Z,83.84
2023-03-19T02:10:52.677Z,84.05
2023-03-19T02:11:52.541Z,84.35
2023-03-19T02:12:52.577Z,84.56
2023-03-19T02:13:52.524Z,85.00
2023-03-19T02:14:52.503Z,84.86
2023-03-19T02:15:52.574Z,84.35
2023-03-19T02:16:52.513Z,84.25
2023-03-19T02:17:52.495Z,84.15
2023-03-19T02:18:52.532Z,85.00
2023-03-19T02:19:52.484Z,84.90
2023-03-19T02:20:52.465Z,84.97
2023-03-19T02:21:52.531Z,83.95
2023-03-19T02:22:52.481Z,83.95
2023-03-19T02:23:52.417Z,83.74
2023-03-19T02:24:52.392Z,83.44
2023-03-19T02:25:52.373Z,83.54
2023-03-19T02:26:52.367Z,83.84
2023-03-19T02:27:52.415Z,83.74
2023-03-19T02:28:52.371Z,84.25
2023-03-19T02:29:52.346Z,83.84
2023-03-19T02:30:52.325Z,83.54
2023-03-19T02:31:52.333Z,83.34
2023-03-19T02:32:52.467Z,83.44
2023-03-19T02:33:52.326Z,83.44
2023-03-19T02:34:52.274Z,83.13
2023-03-19T02:35:52.365Z,83.34
2023-03-19T02:36:52.264Z,83.50
2023-03-19T02:37:52.236Z,83.03
2023-03-19T02:38:52.242Z,83.23
2023-03-19T02:39:52.280Z,83.20
2023-03-19T02:40:52.199Z,82.59
2023-03-19T02:41:52.213Z,82.79
2023-03-19T02:42:52.175Z,83.23
2023-03-19T02:43:52.173Z,83.23
2023-03-19T02:44:52.193Z,83.44
2023-03-19T02:45:52.150Z,83.74
2023-03-19T02:46:52.201Z,83.44
2023-03-19T02:47:52.120Z,83.74
2023-03-19T02:48:52.106Z,83.64
2023-03-19T02:49:52.108Z,83.09
2023-03-19T02:50:52.142Z,82.79
2023-03-19T02:51:52.099Z,82.59
2023-03-19T02:52:52.060Z,82.68
2023-03-19T02:53:52.047Z,81.98
2023-03-19T02:54:52.046Z,82.82
2023-03-19T02:55:52.039Z,82.93
2023-03-19T02:56:52.088Z,82.62
2023-03-19T02:57:51.999Z,83.13
2023-03-19T02:58:51.993Z,82.68
2023-03-19T02:59:51.968Z,82.18
2023-03-19T03:00:52.112Z,81.33
2023-03-19T03:01:51.995Z,81.02
2023-03-19T03:02:51.973Z,80.92
2023-03-19T03:03:51.944Z,80.72
2023-03-19T03:04:52.031Z,80.72
2023-03-19T03:05:51.917Z,81.02
2023-03-19T03:06:51.906Z,81.57
2023-03-19T03:07:51.908Z,82.26
2023-03-19T03:08:51.909Z,82.76
2023-03-19T03:09:51.900Z,82.46
2023-03-19T03:10:51.865Z,82.46
2023-03-19T03:11:51.891Z,82.46
2023-03-19T03:12:51.836Z,82.21
2023-03-19T03:13:51.850Z,81.46
2023-03-19T03:14:51.816Z,80.85
2023-03-19T03:15:51.788Z,80.31
2023-03-19T03:16:51.786Z,79.80
2023-03-19T03:17:51.780Z,79.70
2023-03-19T03:18:51.784Z,80.55
2023-03-19T03:19:51.760Z,81.16
2023-03-19T03:20:51.749Z,80.96
2023-03-19T03:21:51.737Z,80.76
2023-03-19T03:22:51.710Z,80.31
2023-03-19T03:23:51.719Z,80.85
2023-03-19T03:24:51.771Z,81.16
2023-03-19T03:25:51.700Z,81.06
2023-03-19T03:26:51.672Z,80.85
2023-03-19T03:27:51.673Z,80.96
2023-03-19T03:28:51.651Z,81.91
2023-03-19T03:29:51.633Z,82.66
2023-03-19T03:30:51.649Z,83.17
2023-03-19T03:31:51.638Z,82.82
2023-03-19T03:32:51.681Z,82.62
2023-03-19T03:33:51.615Z,82.38
2023-03-19T03:34:51.594Z,82.18
2023-03-19T03:35:51.578Z,82.07
2023-03-19T03:36:51.698Z,81.98
2023-03-19T03:37:51.582Z,81.98
2023-03-19T03:38:51.524Z,81.98
2023-03-19T03:39:51.535Z,82.07
2023-03-19T03:40:51.505Z,81.67
2023-03-19T03:41:51.649Z,81.77
2023-03-19T03:42:51.524Z,81.77
2023-03-19T03:43:51.528Z,81.67
2023-03-19T03:44:51.466Z,82.01
2023-03-19T03:45:51.488Z,82.01
2023-03-19T03:46:51.442Z,82.12
2023-03-19T03:47:51.455Z,82.01
2023-03-19T03:48:51.468Z,82.21
2023-03-19T03:49:51.403Z,82.12
2023-03-19T03:50:51.406Z,82.01
2023-03-19T03:51:51.391Z,83.07
2023-03-19T03:52:51.381Z,83.82
2023-03-19T03:53:51.407Z,84.23
2023-03-19T03:54:51.385Z,84.53
2023-03-19T03:55:51.349Z,84.23
2023-03-19T03:56:51.332Z,83.82
2023-03-19T03:57:51.402Z,83.82
2023-03-19T03:58:51.337Z,83.31
2023-03-19T03:59:51.324Z,83.51
2023-03-19T04:00:51.282Z,83.62
2023-03-19T04:01:51.337Z,84.37
2023-03-19T04:02:51.268Z,84.92
2023-03-19T04:03:51.231Z,85.13
2023-03-19T04:04:51.250Z,84.78
2023-03-19T04:05:51.220Z,84.47
2023-03-19T04:06:51.210Z,84.61
2023-03-19T04:07:51.197Z,84.37
2023-03-19T04:08:51.170Z,84.27
2023-03-19T04:09:51.204Z,83.80
2023-03-19T04:10:51.174Z,84.00
2023-03-19T04:11:51.688Z,84.66
2023-03-19T04:12:51.164Z,85.47
2023-03-19T04:13:51.133Z,85.92
2023-03-19T04:14:51.105Z,86.63
2023-03-19T04:15:51.171Z,86.83
2023-03-19T04:16:51.178Z,86.53
2023-03-19T04:17:51.105Z,86.08
2023-03-19T04:18:51.119Z,86.29
2023-03-19T04:19:51.112Z,86.08
2023-03-19T04:20:51.082Z,85.77
2023-03-19T04:21:51.097Z,85.68
2023-03-19T04:22:51.019Z,86.22
2023-03-19T04:23:51.035Z,86.22
2023-03-19T04:24:50.985Z,86.94
2023-03-19T04:25:50.973Z,87.29
2023-03-19T04:26:50.978Z,87.65
2023-03-19T04:27:51.195Z,87.49
2023-03-19T04:28:50.946Z,87.55
2023-03-19T04:29:50.988Z,86.94
2023-03-19T04:30:50.971Z,86.94
2023-03-19T04:31:50.948Z,86.88
2023-03-19T04:32:50.947Z,87.45
2023-03-19T04:33:50.935Z,86.73
2023-03-19T04:34:50.867Z,85.88
2023-03-19T04:35:50.906Z,85.37
2023-03-19T04:36:50.849Z,84.96
2023-03-19T04:37:50.861Z,85.21
2023-03-19T04:38:50.866Z,84.96
2023-03-19T04:39:50.823Z,84.66
2023-03-19T04:40:50.796Z,84.69
2023-03-19T04:41:50.813Z,85.41
2023-03-19T04:42:50.779Z,85.10
2023-03-19T04:43:50.768Z,85.41
2023-03-19T04:44:50.799Z,85.30
2023-03-19T04:45:50.771Z,86.06
2023-03-19T04:46:50.732Z,86.77
2023-03-19T04:47:50.716Z,87.32
2023-03-19T04:48:50.739Z,87.38
2023-03-19T04:49:50.740Z,87.08
2023-03-19T04:50:50.678Z,86.77
2023-03-19T04:51:50.685Z,86.67
2023-03-19T04:52:50.659Z,87.08
2023-03-19T04:53:50.645Z,87.63
2023-03-19T04:54:50.676Z,87.59
2023-03-19T04:55:50.776Z,87.70
2023-03-19T04:56:50.609Z,87.38
2023-03-19T04:57:50.620Z,86.83
2023-03-19T04:58:50.587Z,86.12
2023-03-19T04:59:50.588Z,85.41
2023-03-19T05:00:50.561Z,85.41
2023-03-19T05:01:50.586Z,85.71
2023-03-19T05:02:50.548Z,86.02
2023-03-19T05:03:50.713Z,85.71
2023-03-19T05:04:50.527Z,85.10
2023-03-19T05:05:50.526Z,85.71
2023-03-19T05:06:50.546Z,85.51
2023-03-19T05:07:50.488Z,85.30
2023-03-19T05:08:50.533Z,85.10
2023-03-19T05:09:50.478Z,85.65
2023-03-19T05:10:50.486Z,86.36
2023-03-19T05:11:50.450Z,86.77
2023-03-19T05:12:50.476Z,86.77
2023-03-19T05:13:50.422Z,86.22
2023-03-19T05:14:50.435Z,86.67
2023-03-19T05:15:50.427Z,86.53
2023-03-19T05:16:50.387Z,86.02
2023-03-19T05:17:50.454Z,86.33
2023-03-19T05:18:50.358Z,85.92
2023-03-19T05:19:50.365Z,85.51
2023-03-19T05:20:50.339Z,85.41
2023-03-19T05:21:50.344Z,85.82
2023-03-19T05:22:50.315Z,85.51
2023-03-19T05:23:50.331Z,85.30
2023-03-19T05:24:50.328Z,85.10
2023-03-19T05:25:50.290Z,84.69
2023-03-19T05:26:50.274Z,84.90
2023-03-19T05:27:50.260Z,84.90
2023-03-19T05:28:50.344Z,85.65
2023-03-19T05:29:50.243Z,86.47
2023-03-19T05:30:50.281Z,86.36
2023-03-19T05:31:50.221Z,85.96
2023-03-19T05:32:50.244Z,86.77
2023-03-19T05:33:50.207Z,86.77
2023-03-19T05:34:50.392Z,86.47
2023-03-19T05:35:50.241Z,86.16
2023-03-19T05:36:50.164Z,85.61
2023-03-19T05:37:50.155Z,85.86
2023-03-19T05:38:50.187Z,85.96
2023-03-19T05:39:50.127Z,85.61
2023-03-19T05:40:50.131Z,85.45
2023-03-19T05:41:50.114Z,86.20
2023-03-19T05:42:50.129Z,87.47
2023-03-19T05:43:50.084Z,88.18
2023-03-19T05:44:50.088Z,88.08
2023-03-19T05:45:50.112Z,88.08
2023-03-19T05:46:50.118Z,87.88
2023-03-19T05:47:50.064Z,87.67
2023-03-19T05:48:50.057Z,87.53
2023-03-19T05:49:50.111Z,86.71
2023-03-19T05:50:50.057Z,87.06
2023-03-19T05:51:50.058Z,86.82
2023-03-19T05:52:49.989Z,86.61
2023-03-19T05:53:49.963Z,86.20
2023-03-19T05:54:49.945Z,86.06
2023-03-19T05:55:49.949Z,85.65
2023-03-19T05:56:50.010Z,85.45
2023-03-19T05:57:49.946Z,85.24
2023-03-19T05:58:49.916Z,85.00
2023-03-19T05:59:49.949Z,84.69
2023-03-19T06:00:49.898Z,84.74
2023-03-19T06:01:49.962Z,85.14
2023-03-19T06:02:49.942Z,85.24
2023-03-19T06:03:49.996Z,85.59
2023-03-19T06:04:49.847Z,85.89
2023-03-19T06:05:49.823Z,85.69
2023-03-19T06:06:49.820Z,86.10
2023-03-19T06:07:49.835Z,86.10
2023-03-19T06:08:49.823Z,85.79
2023-03-19T06:09:49.956Z,85.86
2023-03-19T06:10:49.786Z,85.35
2023-03-19T06:11:49.754Z,85.65
2023-03-19T06:12:49.766Z,85.86
2023-03-19T06:13:49.768Z,86.10
2023-03-19T06:14:49.743Z,86.06
2023-03-19T06:15:49.887Z,85.96
2023-03-19T06:16:49.727Z,85.96
2023-03-19T06:17:49.694Z,86.16
2023-03-19T06:18:49.684Z,86.82
2023-03-19T06:19:49.800Z,87.63
2023-03-19T06:20:49.660Z,87.63
2023-03-19T06:21:49.663Z,87.49
2023-03-19T06:22:49.635Z,86.83
2023-03-19T06:23:49.610Z,86.53
2023-03-19T06:24:49.816Z,86.12
2023-03-19T06:25:49.607Z,85.77
2023-03-19T06:26:49.586Z,85.57
2023-03-19T06:27:49.596Z,85.27
2023-03-19T06:28:49.566Z,85.16
2023-03-19T06:29:49.579Z,85.06
2023-03-19T06:30:49.572Z,84.82
2023-03-19T06:31:49.576Z,84.72
2023-03-19T06:32:49.555Z,84.61
2023-03-19T06:33:49.510Z,84.51
2023-03-19T06:34:49.523Z,84.41
2023-03-19T06:35:49.547Z,84.41
2023-03-19T06:36:49.472Z,84.92
2023-03-19T06:37:49.479Z,84.51
2023-03-19T06:38:49.451Z,84.20
2023-03-19T06:39:49.453Z,84.06
2023-03-19T06:40:49.434Z,83.56
2023-03-19T06:41:49.442Z,83.56
2023-03-19T06:42:49.405Z,83.45
2023-03-19T06:43:49.387Z,83.45
2023-03-19T06:44:51.231Z,83.59
2023-03-19T06:45:49.436Z,84.51
2023-03-19T06:46:49.361Z,84.82
2023-03-19T06:47:50.626Z,84.41
2023-03-19T06:48:49.365Z,83.76
2023-03-19T06:49:49.364Z,83.56
2023-03-19T06:50:49.366Z,83.15
2023-03-19T06:51:49.317Z,83.25
2023-03-19T06:52:49.311Z,83.15
2023-03-19T06:53:49.329Z,83.15
2023-03-19T06:54:49.284Z,83.21
2023-03-19T06:55:49.279Z,82.50
2023-03-19T06:56:49.246Z,82.09
2023-03-19T06:57:49.259Z,82.60
2023-03-19T06:58:49.309Z,82.40
2023-03-19T06:59:49.352Z,82.29
2023-03-19T07:00:49.228Z,82.50
2023-03-19T07:01:49.190Z,81.95
2023-03-19T07:02:49.177Z,81.74
2023-03-19T07:03:49.261Z,81.88
2023-03-19T07:04:49.170Z,82.29
2023-03-19T07:05:49.151Z,81.95
2023-03-19T07:06:49.120Z,80.93
2023-03-19T07:07:49.147Z,81.24
2023-03-19T07:08:49.566Z,81.30
2023-03-19T07:09:49.128Z,80.42
2023-03-19T07:10:49.691Z,81.24
2023-03-19T07:11:49.067Z,80.99
2023-03-19T07:12:49.355Z,80.38
2023-03-19T07:13:49.057Z,80.29
2023-03-19T07:14:49.095Z,80.18
2023-03-19T07:15:49.045Z,80.29
2023-03-19T07:16:49.168Z,80.52
2023-03-19T07:17:48.990Z,80.42
2023-03-19T07:18:48.986Z,80.36
2023-03-19T07:19:48.974Z,80.77
2023-03-19T07:20:48.948Z,80.42
2023-03-19T07:21:48.974Z,80.52
2023-03-19T07:22:48.974Z,80.46
2023-03-19T07:23:48.958Z,81.27
2023-03-19T07:24:48.931Z,81.17
2023-03-19T07:25:49.071Z,80.83
2023-03-19T07:26:48.925Z,80.11
2023-03-19T07:27:49.091Z,80.38
2023-03-19T07:28:48.885Z,80.49
2023-03-19T07:29:49.003Z,80.08
2023-03-19T07:30:48.861Z,79.94
2023-03-19T07:31:48.850Z,79.27
2023-03-19T07:32:48.829Z,79.77
2023-03-19T07:33:48.852Z,79.16
2023-03-19T07:34:48.805Z,79.47
2023-03-19T07:35:48.824Z,79.06
2023-03-19T07:36:48.835Z,78.82
2023-03-19T07:37:48.785Z,78.17
2023-03-19T07:38:48.741Z,78.15
2023-03-19T07:39:48.861Z,78.80
2023-03-19T07:41:01.561Z,79.47
2023-03-19T07:41:49.743Z,78.82
2023-03-19T07:42:48.748Z,78.41
2023-03-19T07:43:48.750Z,78.76
2023-03-19T07:44:48.810Z,79.06
2023-03-19T07:45:48.709Z,78.31
2023-03-19T07:46:48.680Z,78.28
2023-03-19T07:47:50.242Z,78.01
2023-03-19T07:48:48.651Z,78.11
2023-03-19T07:49:48.638Z,78.21
2023-03-19T07:50:48.664Z,78.17
2023-03-19T07:51:48.766Z,77.77
2023-03-19T07:52:48.593Z,78.38
2023-03-19T07:53:48.644Z,77.83
2023-03-19T07:54:48.562Z,77.53
2023-03-19T07:55:48.551Z,76.88
2023-03-19T07:56:48.541Z,77.29
2023-03-19T07:57:48.580Z,76.92
2023-03-19T07:58:48.590Z,76.72
2023-03-19T07:59:49.234Z,76.78
2023-03-19T08:00:48.569Z,76.10
2023-03-19T08:01:48.472Z,76.31
2023-03-19T08:02:48.517Z,76.95
2023-03-19T08:03:49.050Z,77.26
2023-03-19T08:04:48.487Z,77.56
2023-03-19T08:05:48.526Z,77.47
2023-03-19T08:06:48.553Z,77.87
2023-03-19T08:07:48.412Z,77.22
2023-03-19T08:08:48.523Z,77.47
2023-03-19T08:09:48.894Z,78.38
2023-03-19T08:10:48.440Z,78.28
2023-03-19T08:11:48.394Z,77.67
2023-03-19T08:12:48.637Z,77.73
2023-03-19T08:13:48.427Z,77.87
2023-03-19T08:14:48.368Z,78.38
2023-03-19T08:15:48.363Z,78.58
2023-03-19T08:16:48.428Z,77.97
2023-03-19T08:17:48.336Z,77.22
2023-03-19T08:18:48.286Z,76.78
2023-03-19T08:19:48.286Z,76.68
2023-03-19T08:20:48.286Z,75.76
2023-03-19T08:21:48.256Z,75.93
2023-03-19T08:22:48.253Z,75.73
2023-03-19T08:23:48.763Z,75.83
2023-03-19T08:24:48.207Z,75.49
2023-03-19T08:25:48.308Z,74.88
2023-03-19T08:26:48.228Z,75.12
2023-03-19T08:27:48.216Z,75.63
2023-03-19T08:28:48.226Z,75.26
2023-03-19T08:29:48.197Z,75.46
2023-03-19T08:30:48.306Z,75.67
2023-03-19T08:31:48.221Z,75.32
2023-03-19T08:32:48.229Z,75.56
2023-03-19T08:33:48.162Z,76.14
2023-03-19T08:34:49.714Z,76.34
2023-03-19T08:35:48.152Z,75.39
2023-03-19T08:36:48.213Z,74.98
2023-03-19T08:37:48.085Z,74.58
2023-03-19T08:38:48.102Z,74.48
2023-03-19T08:39:48.040Z,74.04
2023-03-19T08:40:48.045Z,73.29
2023-03-19T08:41:48.050Z,73.19
2023-03-19T08:42:48.153Z,72.78
2023-03-19T08:43:48.051Z,74.44
2023-03-19T08:44:47.983Z,74.81
2023-03-19T08:45:47.985Z,73.46
2023-03-19T08:46:48.018Z,73.39
2023-03-19T08:47:48.067Z,73.70
2023-03-19T08:48:47.979Z,74.04
2023-03-19T08:49:47.978Z,73.70
2023-03-19T08:50:47.948Z,73.49
2023-03-19T08:51:47.905Z,72.89
2023-03-19T08:52:47.901Z,73.70
2023-03-19T08:53:47.951Z,73.46
2023-03-19T08:54:47.880Z,72.99
2023-03-19T08:55:47.973Z,73.25
2023-03-19T08:56:47.857Z,73.02
2023-03-19T08:57:47.908Z,72.65
2023-03-19T08:58:47.824Z,73.36
2023-03-19T08:59:47.850Z,72.41
2023-03-19T09:00:47.828Z,72.52
2023-03-19T09:01:47.825Z,71.70
2023-03-19T09:02:48.133Z,70.96
2023-03-19T09:03:47.814Z,71.16
2023-03-19T09:04:47.813Z,71.26
2023-03-19T09:05:47.769Z,70.45
2023-03-19T09:06:47.744Z,70.29
2023-03-19T09:07:47.751Z,70.93
2023-03-19T09:08:47.694Z,71.64
2023-03-19T09:09:47.785Z,71.50
2023-03-19T09:10:49.433Z,71.64
2023-03-19T09:11:47.676Z,71.88
2023-03-19T09:12:48.616Z,71.84
2023-03-19T09:13:47.655Z,72.08
2023-03-19T09:14:47.880Z,72.82
2023-03-19T09:15:47.667Z,72.41
2023-03-19T09:16:47.652Z,72.92
2023-03-19T09:17:47.661Z,72.68
2023-03-19T09:18:47.617Z,72.55
2023-03-19T09:19:47.716Z,72.45
2023-03-19T09:20:47.696Z,71.60
2023-03-19T09:21:47.549Z,71.16
2023-03-19T09:22:47.614Z,71.84
2023-03-19T09:23:47.561Z,72.48
2023-03-19T09:24:47.574Z,72.48
2023-03-19T09:25:47.519Z,73.43
2023-03-19T09:26:47.520Z,73.49
2023-03-19T09:27:47.939Z,72.38
2023-03-19T09:28:47.534Z,72.48
2023-03-19T09:29:47.520Z,72.38
2023-03-19T09:30:47.457Z,72.48
2023-03-19T09:31:47.757Z,71.64
2023-03-19T09:32:47.590Z,71.70
2023-03-19T09:33:47.510Z,71.94
2023-03-19T09:34:47.471Z,71.70
2023-03-19T09:35:47.528Z,71.06
2023-03-19T09:36:47.436Z,71.47
2023-03-19T09:37:47.396Z,71.26
2023-03-19T09:38:47.381Z,70.45
2023-03-19T09:39:47.515Z,70.93
2023-03-19T09:40:47.478Z,71.88
2023-03-19T09:41:47.324Z,71.47
2023-03-19T09:42:47.322Z,71.50
2023-03-19T09:43:47.336Z,71.47
2023-03-19T09:44:47.347Z,70.52
2023-03-19T09:45:47.292Z,70.42
2023-03-19T09:46:47.355Z,70.29
2023-03-19T09:47:47.263Z,70.62
2023-03-19T09:48:47.274Z,69.11
2023-03-19T09:49:47.245Z,69.14
2023-03-19T09:50:47.274Z,69.21
2023-03-19T09:51:47.279Z,70.29
2023-03-19T09:52:47.263Z,69.51
2023-03-19T09:53:47.188Z,68.98
2023-03-19T09:54:47.214Z,68.24
2023-03-19T09:55:47.207Z,67.53
2023-03-19T09:56:47.146Z,68.64
2023-03-19T09:57:47.138Z,67.07
2023-03-19T09:58:47.172Z,65.59
2023-03-19T09:59:47.180Z,65.62
2023-03-19T10:00:47.137Z,63.65
2023-03-19T10:01:47.162Z,64.22
2023-03-19T10:02:47.080Z,62.68
2023-03-19T10:03:47.162Z,63.15
2023-03-19T10:04:47.074Z,62.72
2023-03-19T10:05:47.049Z,62.24
2023-03-19T10:06:48.310Z,61.85
2023-03-19T10:07:47.106Z,61.77
2023-03-19T10:08:47.122Z,61.04
2023-03-19T10:09:47.010Z,61.61
2023-03-19T10:10:46.989Z,60.81
2023-03-19T10:11:46.983Z,60.61
2023-03-19T10:12:47.124Z,61.91
2023-03-19T10:13:46.971Z,61.31
2023-03-19T10:14:46.941Z,60.94
2023-03-19T10:15:46.931Z,62.48
2023-03-19T10:16:46.914Z,60.97
2023-03-19T10:17:46.918Z,61.83
2023-03-19T10:18:47.126Z,62.41
2023-03-19T10:19:47.045Z,62.38
2023-03-19T10:20:46.901Z,61.17
2023-03-19T10:21:46.909Z,62.07
2023-03-19T10:22:46.864Z,61.98
2023-03-19T10:23:47.026Z,63.21
2023-03-19T10:24:46.899Z,63.45
2023-03-19T10:25:46.890Z,62.84
2023-03-19T10:26:46.801Z,62.94
2023-03-19T10:27:46.846Z,62.24
2023-03-19T10:28:46.792Z,62.94
2023-03-19T10:29:46.806Z,62.74
2023-03-19T10:30:46.759Z,63.67
2023-03-19T10:31:46.786Z,63.78
2023-03-19T10:32:46.740Z,63.54
2023-03-19T10:33:46.744Z,63.11
2023-03-19T10:34:46.797Z,63.45
2023-03-19T10:35:46.791Z,63.75
2023-03-19T10:36:46.697Z,63.04
2023-03-19T10:37:46.675Z,63.57
2023-03-19T10:38:46.659Z,63.04
2023-03-19T10:39:46.681Z,62.34
2023-03-19T10:40:46.702Z,63.30
2023-03-19T10:41:46.643Z,64.44
2023-03-19T10:42:46.633Z,64.24
2023-03-19T10:43:46.602Z,64.75
2023-03-19T10:44:46.592Z,65.99
2023-03-19T10:45:46.677Z,65.99
2023-03-19T10:46:46.602Z,65.99
2023-03-19T10:47:46.556Z,65.65
2023-03-19T10:48:46.676Z,65.81
2023-03-19T10:49:46.550Z,66.93
2023-03-19T10:50:46.599Z,66.08
2023-03-19T10:51:46.563Z,66.22
2023-03-19T10:52:46.495Z,66.52
2023-03-19T10:53:46.519Z,66.02
2023-03-19T10:54:46.483Z,65.88
2023-03-19T10:55:46.465Z,65.68
2023-03-19T10:56:46.475Z,65.68
2023-03-19T10:57:46.486Z,65.88
2023-03-19T10:58:46.438Z,65.28
2023-03-19T10:59:46.421Z,65.18
2023-03-19T11:00:46.518Z,65.15
2023-03-19T11:01:46.422Z,65.58
2023-03-19T11:02:46.466Z,64.87
2023-03-19T11:03:46.385Z,65.68
2023-03-19T11:04:46.395Z,65.78
2023-03-19T11:05:46.356Z,65.25
2023-03-19T11:06:46.340Z,64.75
2023-03-19T11:07:46.323Z,64.92
2023-03-19T11:08:46.346Z,64.28
2023-03-19T11:09:46.300Z,64.21
2023-03-19T11:10:46.317Z,64.51
2023-03-19T11:11:47.026Z,63.78
2023-03-19T11:12:46.303Z,64.18
2023-03-19T11:13:46.254Z,63.90
2023-03-19T11:14:46.297Z,64.11
2023-03-19T11:15:46.228Z,64.81
2023-03-19T11:16:46.325Z,64.72
2023-03-19T11:17:46.214Z,64.72
2023-03-19T11:18:46.196Z,64.81
2023-03-19T11:19:46.192Z,65.12
2023-03-19T11:20:46.220Z,64.78
2023-03-19T11:21:46.195Z,65.92
2023-03-19T11:22:46.210Z,66.32
2023-03-19T11:23:46.137Z,66.86
2023-03-19T11:24:46.157Z,66.32
2023-03-19T11:25:46.193Z,66.69
2023-03-19T11:26:46.126Z,68.24
2023-03-19T11:27:46.126Z,67.83
2023-03-19T11:28:46.090Z,68.44
2023-03-19T11:29:46.066Z,67.97
2023-03-19T11:30:46.075Z,68.54
2023-03-19T11:31:46.164Z,67.73
2023-03-19T11:32:46.196Z,67.30
2023-03-19T11:33:46.028Z,66.22
2023-03-19T11:34:46.027Z,66.82
2023-03-19T11:35:46.086Z,66.52
2023-03-19T11:36:46.002Z,67.16
2023-03-19T11:37:46.014Z,66.65
2023-03-19T11:38:45.961Z,67.36
2023-03-19T11:39:45.966Z,66.45
2023-03-19T11:40:45.950Z,66.89
2023-03-19T11:41:45.930Z,66.82
2023-03-19T11:42:45.920Z,67.19
2023-03-19T11:43:45.951Z,66.58
2023-03-19T11:44:45.916Z,66.35
2023-03-19T11:45:45.999Z,66.86
2023-03-19T11:46:45.877Z,66.96
2023-03-19T11:47:45.884Z,66.55
2023-03-19T11:48:45.854Z,67.29
2023-03-19T11:49:45.885Z,69.04
2023-03-19T11:50:48.087Z,69.48
2023-03-19T11:51:45.833Z,72.14
2023-03-19T11:52:45.807Z,74.27
2023-03-19T11:53:45.798Z,75.85
2023-03-19T11:54:45.788Z,77.21
2023-03-19T11:55:46.983Z,77.48
2023-03-19T11:56:45.782Z,77.88
2023-03-19T11:57:45.737Z,77.07
2023-03-19T11:58:45.726Z,75.96
2023-03-19T11:59:45.729Z,76.73
2023-03-19T12:00:45.718Z,76.73
2023-03-19T12:01:45.765Z,76.53
2023-03-19T12:02:45.719Z,75.31
2023-03-19T12:03:45.736Z,75.01
2023-03-19T12:04:45.670Z,76.06
2023-03-19T12:05:45.679Z,76.77
2023-03-19T12:06:45.680Z,76.54
2023-03-19T12:07:45.650Z,77.95
2023-03-19T12:08:45.660Z,78.28
2023-03-19T12:09:45.600Z,76.40
2023-03-19T12:10:45.607Z,76.60
2023-03-19T12:11:45.693Z,77.03
2023-03-19T12:12:45.582Z,76.53
2023-03-19T12:13:45.587Z,75.52
2023-03-19T12:14:45.550Z,75.28
2023-03-19T12:15:45.571Z,74.77
2023-03-19T12:16:46.345Z,74.07
2023-03-19T12:17:45.564Z,74.37
2023-03-19T12:18:45.544Z,73.56
2023-03-19T12:19:45.516Z,73.86
2023-03-19T12:20:45.496Z,74.54
2023-03-19T12:21:45.499Z,73.25
2023-03-19T12:22:45.462Z,73.05
2023-03-19T12:23:46.734Z,73.15
2023-03-19T12:24:45.458Z,73.05
2023-03-19T12:25:45.434Z,73.32
2023-03-19T12:26:45.447Z,72.01
2023-03-19T12:27:45.410Z,71.97
2023-03-19T12:28:45.412Z,70.15
2023-03-19T12:29:45.535Z,70.76
2023-03-19T12:30:45.499Z,69.65
2023-03-19T12:31:45.364Z,70.56
2023-03-19T12:32:45.395Z,70.42
2023-03-19T12:33:45.397Z,69.95
2023-03-19T12:34:45.347Z,68.51
2023-03-19T12:35:45.364Z,68.77
2023-03-19T12:36:45.701Z,67.67
2023-03-19T12:37:45.295Z,67.97
2023-03-19T12:38:45.266Z,68.17
2023-03-19T12:39:45.296Z,69.15
2023-03-19T12:40:45.277Z,66.49
2023-03-19T12:41:45.364Z,68.24
2023-03-19T12:42:45.229Z,68.30
2023-03-19T12:43:45.209Z,66.89
2023-03-19T12:44:45.207Z,68.07
2023-03-19T12:45:45.198Z,66.73
2023-03-19T12:46:45.203Z,65.82
2023-03-19T12:47:45.226Z,64.78
2023-03-19T12:48:45.162Z,65.49
2023-03-19T12:49:45.148Z,65.66
2023-03-19T12:50:50.940Z,62.52
2023-03-19T12:51:45.116Z,63.70
2023-03-19T12:52:45.111Z,64.92